sensor_id;sensor_type;location;lat;lon;timestamp;pressure;altitude;pressure_sealevel;temperature
71205;BMP180;58935;54.498;18.544;2023-08-08T00:01:23;98988.00;;;13.32
71205;BMP180;58935;54.498;18.544;2023-08-08T00:03:48;98982.00;;;13.34
71205;BMP180;58935;54.498;18.544;2023-08-08T00:06:13;98985.40;;;13.32
71205;BMP180;58935;54.498;18.544;2023-08-08T00:08:39;98978.60;;;13.30
71205;BMP180;58935;54.498;18.544;2023-08-08T00:11:05;98988.20;;;13.34
71205;BMP180;58935;54.498;18.544;2023-08-08T00:13:30;98979.80;;;13.30
71205;BMP180;58935;54.498;18.544;2023-08-08T00:15:55;98981.20;;;13.34
71205;BMP180;58935;54.498;18.544;2023-08-08T00:18:21;98956.60;;;13.40
71205;BMP180;58935;54.498;18.544;2023-08-08T00:20:46;98978.60;;;13.40
71205;BMP180;58935;54.498;18.544;2023-08-08T00:23:11;98972.40;;;13.40
71205;BMP180;58935;54.498;18.544;2023-08-08T00:25:37;98977.40;;;13.40
71205;BMP180;58935;54.498;18.544;2023-08-08T00:28:03;98965.20;;;13.44
71205;BMP180;58935;54.498;18.544;2023-08-08T00:30:28;98970.40;;;13.50
71205;BMP180;58935;54.498;18.544;2023-08-08T00:32:54;98976.60;;;13.50
71205;BMP180;58935;54.498;18.544;2023-08-08T00:35:19;98962.00;;;13.50
71205;BMP180;58935;54.498;18.544;2023-08-08T00:37:44;98981.00;;;13.50
71205;BMP180;58935;54.498;18.544;2023-08-08T00:40:10;98958.00;;;13.50
71205;BMP180;58935;54.498;18.544;2023-08-08T00:42:35;98950.60;;;13.50
71205;BMP180;58935;54.498;18.544;2023-08-08T00:45:01;98961.20;;;13.60
71205;BMP180;58935;54.498;18.544;2023-08-08T00:47:34;98941.40;;;13.56
71205;BMP180;58935;54.498;18.544;2023-08-08T00:50:00;98952.40;;;13.60
71205;BMP180;58935;54.498;18.544;2023-08-08T00:52:28;98941.40;;;13.58
71205;BMP180;58935;54.498;18.544;2023-08-08T00:54:53;98955.20;;;13.56
71205;BMP180;58935;54.498;18.544;2023-08-08T00:57:19;98957.20;;;13.54
71205;BMP180;58935;54.498;18.544;2023-08-08T00:59:44;98923.20;;;13.50
71205;BMP180;58935;54.498;18.544;2023-08-08T01:02:11;98956.00;;;13.50
71205;BMP180;58935;54.498;18.544;2023-08-08T01:04:37;98948.40;;;13.50
71205;BMP180;58935;54.498;18.544;2023-08-08T01:07:33;98959.00;;;13.50
71205;BMP180;58935;54.498;18.544;2023-08-08T01:10:08;98950.40;;;13.50
71205;BMP180;58935;54.498;18.544;2023-08-08T01:12:41;98958.40;;;13.40
71205;BMP180;58935;54.498;18.544;2023-08-08T01:15:08;98959.60;;;13.42
71205;BMP180;58935;54.498;18.544;2023-08-08T01:17:35;98947.40;;;13.40
71205;BMP180;58935;54.498;18.544;2023-08-08T01:20:04;98951.00;;;13.40
71205;BMP180;58935;54.498;18.544;2023-08-08T01:22:38;98941.80;;;13.40
71205;BMP180;58935;54.498;18.544;2023-08-08T01:25:06;98955.60;;;13.44
71205;BMP180;58935;54.498;18.544;2023-08-08T01:27:32;98920.40;;;13.44
71205;BMP180;58935;54.498;18.544;2023-08-08T01:29:57;98956.20;;;13.50
71205;BMP180;58935;54.498;18.544;2023-08-08T01:32:23;98949.40;;;13.50
71205;BMP180;58935;54.498;18.544;2023-08-08T01:34:48;98956.00;;;13.50
71205;BMP180;58935;54.498;18.544;2023-08-08T01:37:19;98949.80;;;13.50
71205;BMP180;58935;54.498;18.544;2023-08-08T01:39:49;98955.40;;;13.60
71205;BMP180;58935;54.498;18.544;2023-08-08T01:42:17;98944.20;;;13.60
71205;BMP180;58935;54.498;18.544;2023-08-08T01:44:43;98944.60;;;13.60
71205;BMP180;58935;54.498;18.544;2023-08-08T01:47:09;98915.60;;;13.60
71205;BMP180;58935;54.498;18.544;2023-08-08T01:49:34;98941.60;;;13.60
71205;BMP180;58935;54.498;18.544;2023-08-08T01:52:00;98949.20;;;13.60
71205;BMP180;58935;54.498;18.544;2023-08-08T01:54:25;98952.00;;;13.60
71205;BMP180;58935;54.498;18.544;2023-08-08T01:56:50;98957.80;;;13.64
71205;BMP180;58935;54.498;18.544;2023-08-08T01:59:16;98958.80;;;13.70
71205;BMP180;58935;54.498;18.544;2023-08-08T02:01:41;98968.40;;;13.70
71205;BMP180;58935;54.498;18.544;2023-08-08T02:04:06;98966.00;;;13.70
71205;BMP180;58935;54.498;18.544;2023-08-08T02:06:32;98969.00;;;13.70
71205;BMP180;58935;54.498;18.544;2023-08-08T02:08:58;98958.80;;;13.70
71205;BMP180;58935;54.498;18.544;2023-08-08T02:11:23;98971.80;;;13.78
71205;BMP180;58935;54.498;18.544;2023-08-08T02:13:49;98971.40;;;13.80
71205;BMP180;58935;54.498;18.544;2023-08-08T02:16:14;98982.40;;;13.80
71205;BMP180;58935;54.498;18.544;2023-08-08T02:18:39;98980.80;;;13.80
71205;BMP180;58935;54.498;18.544;2023-08-08T02:21:07;98973.60;;;13.80
71205;BMP180;58935;54.498;18.544;2023-08-08T02:23:33;98985.40;;;13.88
71205;BMP180;58935;54.498;18.544;2023-08-08T02:25:59;98982.20;;;13.90
71205;BMP180;58935;54.498;18.544;2023-08-08T02:28:25;98975.60;;;13.90
71205;BMP180;58935;54.498;18.544;2023-08-08T02:30:50;98984.20;;;13.90
71205;BMP180;58935;54.498;18.544;2023-08-08T02:33:15;98987.20;;;13.90
71205;BMP180;58935;54.498;18.544;2023-08-08T02:35:41;98989.00;;;13.90
71205;BMP180;58935;54.498;18.544;2023-08-08T02:38:06;98976.60;;;13.90
71205;BMP180;58935;54.498;18.544;2023-08-08T02:40:32;98976.00;;;13.90
71205;BMP180;58935;54.498;18.544;2023-08-08T02:42:58;98977.60;;;13.90
71205;BMP180;58935;54.498;18.544;2023-08-08T02:45:24;98975.00;;;13.90
71205;BMP180;58935;54.498;18.544;2023-08-08T02:47:49;98985.60;;;13.90
71205;BMP180;58935;54.498;18.544;2023-08-08T02:50:14;98987.00;;;13.90
71205;BMP180;58935;54.498;18.544;2023-08-08T02:52:40;98983.60;;;13.92
71205;BMP180;58935;54.498;18.544;2023-08-08T02:55:06;98987.00;;;13.90
71205;BMP180;58935;54.498;18.544;2023-08-08T02:57:32;98986.20;;;13.90
71205;BMP180;58935;54.498;18.544;2023-08-08T02:59:57;98992.20;;;13.90
71205;BMP180;58935;54.498;18.544;2023-08-08T03:02:22;98991.40;;;13.90
71205;BMP180;58935;54.498;18.544;2023-08-08T03:04:48;98961.60;;;13.90
71205;BMP180;58935;54.498;18.544;2023-08-08T03:07:13;99005.20;;;13.90
71205;BMP180;58935;54.498;18.544;2023-08-08T03:09:39;99002.40;;;13.90
71205;BMP180;58935;54.498;18.544;2023-08-08T03:12:05;99006.80;;;13.90
71205;BMP180;58935;54.498;18.544;2023-08-08T03:14:30;99004.60;;;13.90
71205;BMP180;58935;54.498;18.544;2023-08-08T03:16:55;99003.80;;;13.90
71205;BMP180;58935;54.498;18.544;2023-08-08T03:19:21;99005.20;;;13.90
71205;BMP180;58935;54.498;18.544;2023-08-08T03:21:46;99014.40;;;13.90
71205;BMP180;58935;54.498;18.544;2023-08-08T03:24:12;99006.00;;;13.90
71205;BMP180;58935;54.498;18.544;2023-08-08T03:26:37;99021.60;;;13.90
71205;BMP180;58935;54.498;18.544;2023-08-08T03:29:02;99022.60;;;13.90
71205;BMP180;58935;54.498;18.544;2023-08-08T03:31:28;99009.00;;;13.90
71205;BMP180;58935;54.498;18.544;2023-08-08T03:33:53;99027.20;;;13.90
71205;BMP180;58935;54.498;18.544;2023-08-08T03:36:18;99022.00;;;13.90
71205;BMP180;58935;54.498;18.544;2023-08-08T03:38:44;99032.00;;;13.90
71205;BMP180;58935;54.498;18.544;2023-08-08T03:41:11;99029.40;;;13.90
71205;BMP180;58935;54.498;18.544;2023-08-08T03:43:38;99031.00;;;13.90
71205;BMP180;58935;54.498;18.544;2023-08-08T03:46:04;99039.00;;;13.90
71205;BMP180;58935;54.498;18.544;2023-08-08T03:48:29;99054.20;;;13.86
71205;BMP180;58935;54.498;18.544;2023-08-08T03:50:54;99044.00;;;13.90
71205;BMP180;58935;54.498;18.544;2023-08-08T03:53:20;99045.40;;;13.86
71205;BMP180;58935;54.498;18.544;2023-08-08T03:55:45;99067.80;;;13.86
71205;BMP180;58935;54.498;18.544;2023-08-08T03:58:10;99063.80;;;13.90
71205;BMP180;58935;54.498;18.544;2023-08-08T04:00:37;99056.00;;;13.80
71205;BMP180;58935;54.498;18.544;2023-08-08T04:03:04;99069.00;;;13.80
71205;BMP180;58935;54.498;18.544;2023-08-08T04:05:30;99073.40;;;13.80
71205;BMP180;58935;54.498;18.544;2023-08-08T04:07:55;99072.40;;;13.80
71205;BMP180;58935;54.498;18.544;2023-08-08T04:10:20;99061.80;;;13.80
71205;BMP180;58935;54.498;18.544;2023-08-08T04:12:46;99082.40;;;13.80
71205;BMP180;58935;54.498;18.544;2023-08-08T04:15:11;99079.00;;;13.80
71205;BMP180;58935;54.498;18.544;2023-08-08T04:17:36;99086.80;;;13.80
71205;BMP180;58935;54.498;18.544;2023-08-08T04:20:02;99091.40;;;13.80
71205;BMP180;58935;54.498;18.544;2023-08-08T04:22:28;99098.80;;;13.80
71205;BMP180;58935;54.498;18.544;2023-08-08T04:24:53;99103.80;;;13.80
71205;BMP180;58935;54.498;18.544;2023-08-08T04:27:19;99107.80;;;13.80
71205;BMP180;58935;54.498;18.544;2023-08-08T04:29:44;99110.00;;;13.70
71205;BMP180;58935;54.498;18.544;2023-08-08T04:32:09;99114.40;;;13.70
71205;BMP180;58935;54.498;18.544;2023-08-08T04:34:35;99112.40;;;13.70
71205;BMP180;58935;54.498;18.544;2023-08-08T04:37:00;99114.40;;;13.70
71205;BMP180;58935;54.498;18.544;2023-08-08T04:39:25;99117.20;;;13.70
71205;BMP180;58935;54.498;18.544;2023-08-08T04:41:51;99114.20;;;13.68
71205;BMP180;58935;54.498;18.544;2023-08-08T04:44:16;99111.00;;;13.68
71205;BMP180;58935;54.498;18.544;2023-08-08T04:46:41;99116.80;;;13.70
71205;BMP180;58935;54.498;18.544;2023-08-08T04:49:07;99117.00;;;13.70
71205;BMP180;58935;54.498;18.544;2023-08-08T04:51:33;99118.20;;;13.72
71205;BMP180;58935;54.498;18.544;2023-08-08T04:53:58;99125.40;;;13.80
71205;BMP180;58935;54.498;18.544;2023-08-08T04:56:24;99130.80;;;13.86
71205;BMP180;58935;54.498;18.544;2023-08-08T04:58:49;99130.00;;;13.90
71205;BMP180;58935;54.498;18.544;2023-08-08T05:01:14;99128.00;;;13.90
71205;BMP180;58935;54.498;18.544;2023-08-08T05:03:42;99140.60;;;14.00
71205;BMP180;58935;54.498;18.544;2023-08-08T05:06:08;99139.80;;;14.00
71205;BMP180;58935;54.498;18.544;2023-08-08T05:08:33;99148.00;;;14.04
71205;BMP180;58935;54.498;18.544;2023-08-08T05:10:58;99152.40;;;14.10
71205;BMP180;58935;54.498;18.544;2023-08-08T05:13:23;99141.80;;;14.10
71205;BMP180;58935;54.498;18.544;2023-08-08T05:15:49;99155.80;;;14.10
71205;BMP180;58935;54.498;18.544;2023-08-08T05:18:14;99153.80;;;14.04
71205;BMP180;58935;54.498;18.544;2023-08-08T05:20:39;99154.80;;;14.10
71205;BMP180;58935;54.498;18.544;2023-08-08T05:23:05;99148.20;;;14.10
71205;BMP180;58935;54.498;18.544;2023-08-08T05:25:30;99160.20;;;14.20
71205;BMP180;58935;54.498;18.544;2023-08-08T05:27:55;99161.00;;;14.20
71205;BMP180;58935;54.498;18.544;2023-08-08T05:30:22;99163.40;;;14.22
71205;BMP180;58935;54.498;18.544;2023-08-08T05:32:47;99167.40;;;14.30
71205;BMP180;58935;54.498;18.544;2023-08-08T05:35:13;99166.40;;;14.38
71205;BMP180;58935;54.498;18.544;2023-08-08T05:37:38;99167.80;;;14.40
71205;BMP180;58935;54.498;18.544;2023-08-08T05:40:04;99171.80;;;14.50
71205;BMP180;58935;54.498;18.544;2023-08-08T05:42:31;99162.80;;;14.58
71205;BMP180;58935;54.498;18.544;2023-08-08T05:44:57;99175.40;;;14.60
71205;BMP180;58935;54.498;18.544;2023-08-08T05:47:22;99171.80;;;14.70
71205;BMP180;58935;54.498;18.544;2023-08-08T05:49:47;99162.60;;;14.80
71205;BMP180;58935;54.498;18.544;2023-08-08T05:52:13;99158.40;;;14.90
71205;BMP180;58935;54.498;18.544;2023-08-08T05:54:38;99168.00;;;15.00
71205;BMP180;58935;54.498;18.544;2023-08-08T05:57:04;99169.40;;;15.10
71205;BMP180;58935;54.498;18.544;2023-08-08T05:59:30;99162.60;;;15.20
71205;BMP180;58935;54.498;18.544;2023-08-08T06:01:55;99170.60;;;15.30
71205;BMP180;58935;54.498;18.544;2023-08-08T06:04:21;99179.60;;;15.40
71205;BMP180;58935;54.498;18.544;2023-08-08T06:06:46;99180.20;;;15.40
71205;BMP180;58935;54.498;18.544;2023-08-08T06:09:15;99171.80;;;15.40
71205;BMP180;58935;54.498;18.544;2023-08-08T06:11:40;99184.00;;;15.40
71205;BMP180;58935;54.498;18.544;2023-08-08T06:14:05;99176.80;;;15.40
71205;BMP180;58935;54.498;18.544;2023-08-08T06:16:31;99165.60;;;15.40
71205;BMP180;58935;54.498;18.544;2023-08-08T06:18:56;99163.80;;;15.40
71205;BMP180;58935;54.498;18.544;2023-08-08T06:21:21;99190.40;;;15.40
71205;BMP180;58935;54.498;18.544;2023-08-08T06:23:46;99187.00;;;15.40
71205;BMP180;58935;54.498;18.544;2023-08-08T06:26:13;99193.40;;;15.30
71205;BMP180;58935;54.498;18.544;2023-08-08T06:28:39;99189.60;;;15.30
71205;BMP180;58935;54.498;18.544;2023-08-08T06:31:04;99188.60;;;15.28
71205;BMP180;58935;54.498;18.544;2023-08-08T06:33:30;99199.80;;;15.30
71205;BMP180;58935;54.498;18.544;2023-08-08T06:35:56;99202.00;;;15.30
71205;BMP180;58935;54.498;18.544;2023-08-08T06:38:21;99200.80;;;15.30
71205;BMP180;58935;54.498;18.544;2023-08-08T06:40:46;99207.80;;;15.30
71205;BMP180;58935;54.498;18.544;2023-08-08T06:43:12;99199.20;;;15.28
71205;BMP180;58935;54.498;18.544;2023-08-08T06:45:39;99219.00;;;15.28
71205;BMP180;58935;54.498;18.544;2023-08-08T06:48:05;99223.40;;;15.30
71205;BMP180;58935;54.498;18.544;2023-08-08T06:50:30;99216.80;;;15.30
71205;BMP180;58935;54.498;18.544;2023-08-08T06:52:56;99215.00;;;15.40
71205;BMP180;58935;54.498;18.544;2023-08-08T06:55:21;99223.80;;;15.50
71205;BMP180;58935;54.498;18.544;2023-08-08T06:57:46;99227.00;;;15.60
71205;BMP180;58935;54.498;18.544;2023-08-08T07:00:12;99230.20;;;15.60
71205;BMP180;58935;54.498;18.544;2023-08-08T07:02:39;99221.60;;;15.64
71205;BMP180;58935;54.498;18.544;2023-08-08T07:05:05;99241.20;;;15.66
71205;BMP180;58935;54.498;18.544;2023-08-08T07:07:32;99245.40;;;15.70
71205;BMP180;58935;54.498;18.544;2023-08-08T07:09:59;99233.80;;;15.70
71205;BMP180;58935;54.498;18.544;2023-08-08T07:12:24;99249.40;;;15.70
71205;BMP180;58935;54.498;18.544;2023-08-08T07:14:50;99250.00;;;15.70
71205;BMP180;58935;54.498;18.544;2023-08-08T07:17:16;99257.00;;;15.80
71205;BMP180;58935;54.498;18.544;2023-08-08T07:19:41;99244.80;;;15.86
71205;BMP180;58935;54.498;18.544;2023-08-08T07:22:07;99255.60;;;15.90
71205;BMP180;58935;54.498;18.544;2023-08-08T07:24:34;99261.20;;;16.00
71205;BMP180;58935;54.498;18.544;2023-08-08T07:27:00;99260.40;;;16.08
71205;BMP180;58935;54.498;18.544;2023-08-08T07:29:26;99271.60;;;16.10
71205;BMP180;58935;54.498;18.544;2023-08-08T07:31:53;99274.40;;;16.20
71205;BMP180;58935;54.498;18.544;2023-08-08T07:34:19;99278.80;;;16.20
71205;BMP180;58935;54.498;18.544;2023-08-08T07:36:46;99299.40;;;16.12
71205;BMP180;58935;54.498;18.544;2023-08-08T07:39:12;99298.20;;;16.10
71205;BMP180;58935;54.498;18.544;2023-08-08T07:41:37;99296.20;;;16.10
71205;BMP180;58935;54.498;18.544;2023-08-08T07:44:04;99292.20;;;16.10
71205;BMP180;58935;54.498;18.544;2023-08-08T07:46:29;99289.20;;;16.10
71205;BMP180;58935;54.498;18.544;2023-08-08T07:48:55;99287.80;;;16.10
71205;BMP180;58935;54.498;18.544;2023-08-08T07:51:21;99287.60;;;16.04
71205;BMP180;58935;54.498;18.544;2023-08-08T07:53:46;99279.20;;;16.10
71205;BMP180;58935;54.498;18.544;2023-08-08T07:56:11;99299.20;;;16.10
71205;BMP180;58935;54.498;18.544;2023-08-08T07:58:37;99303.80;;;16.12
71205;BMP180;58935;54.498;18.544;2023-08-08T08:01:02;99298.00;;;16.24
71205;BMP180;58935;54.498;18.544;2023-08-08T08:03:28;99310.40;;;16.30
71205;BMP180;58935;54.498;18.544;2023-08-08T08:05:53;99316.00;;;16.48
71205;BMP180;58935;54.498;18.544;2023-08-08T08:08:18;99315.40;;;16.60
71205;BMP180;58935;54.498;18.544;2023-08-08T08:10:44;99318.20;;;16.60
71205;BMP180;58935;54.498;18.544;2023-08-08T08:13:11;99320.00;;;16.60
71205;BMP180;58935;54.498;18.544;2023-08-08T08:15:37;99329.20;;;16.60
71205;BMP180;58935;54.498;18.544;2023-08-08T08:18:03;99324.60;;;16.60
71205;BMP180;58935;54.498;18.544;2023-08-08T08:20:29;99328.20;;;16.60
71205;BMP180;58935;54.498;18.544;2023-08-08T08:22:54;99326.40;;;16.60
71205;BMP180;58935;54.498;18.544;2023-08-08T08:25:19;99341.80;;;16.60
71205;BMP180;58935;54.498;18.544;2023-08-08T08:27:45;99365.00;;;16.60
71205;BMP180;58935;54.498;18.544;2023-08-08T08:30:11;99367.40;;;16.70
71205;BMP180;58935;54.498;18.544;2023-08-08T08:32:39;99363.00;;;16.80
71205;BMP180;58935;54.498;18.544;2023-08-08T08:35:05;99358.80;;;16.90
71205;BMP180;58935;54.498;18.544;2023-08-08T08:37:32;99366.00;;;17.00
71205;BMP180;58935;54.498;18.544;2023-08-08T08:39:58;99357.20;;;17.10
71205;BMP180;58935;54.498;18.544;2023-08-08T08:42:24;99359.60;;;17.10
71205;BMP180;58935;54.498;18.544;2023-08-08T08:44:51;99354.00;;;16.98
71205;BMP180;58935;54.498;18.544;2023-08-08T08:47:20;99352.60;;;16.90
71205;BMP180;58935;54.498;18.544;2023-08-08T08:49:46;99351.20;;;16.80
71205;BMP180;58935;54.498;18.544;2023-08-08T08:52:12;99342.80;;;16.80
71205;BMP180;58935;54.498;18.544;2023-08-08T08:54:38;99350.00;;;16.78
71205;BMP180;58935;54.498;18.544;2023-08-08T08:57:04;99359.60;;;16.80
71205;BMP180;58935;54.498;18.544;2023-08-08T08:59:29;99366.40;;;16.80
71205;BMP180;58935;54.498;18.544;2023-08-08T09:01:55;99363.80;;;16.90
71205;BMP180;58935;54.498;18.544;2023-08-08T09:04:22;99365.60;;;17.00
71205;BMP180;58935;54.498;18.544;2023-08-08T09:06:50;99367.20;;;17.18
71205;BMP180;58935;54.498;18.544;2023-08-08T09:09:16;99375.00;;;17.30
71205;BMP180;58935;54.498;18.544;2023-08-08T09:11:47;99381.40;;;17.48
71205;BMP180;58935;54.498;18.544;2023-08-08T09:14:19;99385.80;;;17.70
71205;BMP180;58935;54.498;18.544;2023-08-08T09:16:46;99377.80;;;17.70
71205;BMP180;58935;54.498;18.544;2023-08-08T09:19:13;99395.20;;;17.60
71205;BMP180;58935;54.498;18.544;2023-08-08T09:21:39;99386.20;;;17.50
71205;BMP180;58935;54.498;18.544;2023-08-08T09:24:04;99394.40;;;17.34
71205;BMP180;58935;54.498;18.544;2023-08-08T09:26:30;99400.40;;;17.26
71205;BMP180;58935;54.498;18.544;2023-08-08T09:28:55;99414.40;;;17.20
71205;BMP180;58935;54.498;18.544;2023-08-08T09:31:21;99421.40;;;17.20
71205;BMP180;58935;54.498;18.544;2023-08-08T09:33:46;99419.60;;;17.30
71205;BMP180;58935;54.498;18.544;2023-08-08T09:36:17;99433.00;;;17.30
71205;BMP180;58935;54.498;18.544;2023-08-08T09:38:45;99426.60;;;17.30
71205;BMP180;58935;54.498;18.544;2023-08-08T09:41:11;99432.40;;;17.30
71205;BMP180;58935;54.498;18.544;2023-08-08T09:43:37;99425.20;;;17.28
71205;BMP180;58935;54.498;18.544;2023-08-08T09:46:03;99432.20;;;17.20
71205;BMP180;58935;54.498;18.544;2023-08-08T09:48:32;99432.60;;;17.18
71205;BMP180;58935;54.498;18.544;2023-08-08T09:50:58;99436.00;;;17.20
71205;BMP180;58935;54.498;18.544;2023-08-08T09:53:27;99435.20;;;17.30
71205;BMP180;58935;54.498;18.544;2023-08-08T09:55:56;99437.20;;;17.52
71205;BMP180;58935;54.498;18.544;2023-08-08T09:58:23;99438.00;;;17.70
71205;BMP180;58935;54.498;18.544;2023-08-08T10:00:50;99439.00;;;17.70
71205;BMP180;58935;54.498;18.544;2023-08-08T10:03:19;99427.00;;;17.70
71205;BMP180;58935;54.498;18.544;2023-08-08T10:05:45;99437.80;;;17.80
71205;BMP180;58935;54.498;18.544;2023-08-08T10:08:14;99445.40;;;17.82
71205;BMP180;58935;54.498;18.544;2023-08-08T10:10:44;99450.20;;;17.94
71205;BMP180;58935;54.498;18.544;2023-08-08T10:13:18;99449.60;;;18.10
71205;BMP180;58935;54.498;18.544;2023-08-08T10:15:44;99463.00;;;18.20
71205;BMP180;58935;54.498;18.544;2023-08-08T10:18:09;99462.60;;;18.30
71205;BMP180;58935;54.498;18.544;2023-08-08T10:20:37;99442.40;;;18.30
71205;BMP180;58935;54.498;18.544;2023-08-08T10:23:03;99462.80;;;18.20
71205;BMP180;58935;54.498;18.544;2023-08-08T10:25:31;99461.20;;;18.10
71205;BMP180;58935;54.498;18.544;2023-08-08T10:28:09;99466.20;;;18.10
71205;BMP180;58935;54.498;18.544;2023-08-08T10:30:53;99467.00;;;18.10
71205;BMP180;58935;54.498;18.544;2023-08-08T10:33:22;99476.00;;;18.16
71205;BMP180;58935;54.498;18.544;2023-08-08T10:36:04;99486.40;;;18.20
71205;BMP180;58935;54.498;18.544;2023-08-08T10:38:48;99476.00;;;18.30
71205;BMP180;58935;54.498;18.544;2023-08-08T10:41:22;99466.60;;;18.46
71205;BMP180;58935;54.498;18.544;2023-08-08T10:43:53;99474.20;;;18.50
71205;BMP180;58935;54.498;18.544;2023-08-08T10:46:26;99481.00;;;18.50
71205;BMP180;58935;54.498;18.544;2023-08-08T10:48:54;99485.40;;;18.48
71205;BMP180;58935;54.498;18.544;2023-08-08T10:51:20;99470.20;;;18.40
71205;BMP180;58935;54.498;18.544;2023-08-08T10:53:46;99466.60;;;18.40
71205;BMP180;58935;54.498;18.544;2023-08-08T10:56:14;99475.20;;;18.40
71205;BMP180;58935;54.498;18.544;2023-08-08T10:58:46;99484.80;;;18.50
71205;BMP180;58935;54.498;18.544;2023-08-08T11:01:12;99480.60;;;18.50
71205;BMP180;58935;54.498;18.544;2023-08-08T11:03:41;99473.80;;;18.60
71205;BMP180;58935;54.498;18.544;2023-08-08T11:06:09;99472.00;;;18.64
71205;BMP180;58935;54.498;18.544;2023-08-08T11:08:36;99487.60;;;18.78
71205;BMP180;58935;54.498;18.544;2023-08-08T11:11:07;99487.20;;;18.90
71205;BMP180;58935;54.498;18.544;2023-08-08T11:13:33;99487.80;;;19.10
71205;BMP180;58935;54.498;18.544;2023-08-08T11:15:59;99492.00;;;19.20
71205;BMP180;58935;54.498;18.544;2023-08-08T11:18:27;99506.00;;;19.20
71205;BMP180;58935;54.498;18.544;2023-08-08T11:20:53;99510.60;;;19.10
71205;BMP180;58935;54.498;18.544;2023-08-08T11:23:18;99521.40;;;18.90
71205;BMP180;58935;54.498;18.544;2023-08-08T11:25:46;99539.40;;;18.80
71205;BMP180;58935;54.498;18.544;2023-08-08T11:28:12;99551.80;;;18.72
71205;BMP180;58935;54.498;18.544;2023-08-08T11:30:43;99558.00;;;18.70
71205;BMP180;58935;54.498;18.544;2023-08-08T11:33:13;99572.80;;;18.70
71205;BMP180;58935;54.498;18.544;2023-08-08T11:35:44;99564.00;;;18.62
71205;BMP180;58935;54.498;18.544;2023-08-08T11:38:13;99544.60;;;18.50
71205;BMP180;58935;54.498;18.544;2023-08-08T11:40:39;99553.80;;;18.36
71205;BMP180;58935;54.498;18.544;2023-08-08T11:43:06;99572.20;;;18.24
71205;BMP180;58935;54.498;18.544;2023-08-08T11:45:31;99568.00;;;18.20
71205;BMP180;58935;54.498;18.544;2023-08-08T11:47:58;99552.80;;;18.16
71205;BMP180;58935;54.498;18.544;2023-08-08T11:50:25;99563.80;;;18.20
71205;BMP180;58935;54.498;18.544;2023-08-08T11:52:54;99560.00;;;18.20
71205;BMP180;58935;54.498;18.544;2023-08-08T11:55:26;99568.00;;;18.22
71205;BMP180;58935;54.498;18.544;2023-08-08T11:57:54;99554.20;;;18.30
71205;BMP180;58935;54.498;18.544;2023-08-08T12:00:28;99570.80;;;18.40
71205;BMP180;58935;54.498;18.544;2023-08-08T12:02:55;99582.00;;;18.50
71205;BMP180;58935;54.498;18.544;2023-08-08T12:05:21;99580.00;;;18.50
71205;BMP180;58935;54.498;18.544;2023-08-08T12:07:48;99570.00;;;18.60
71205;BMP180;58935;54.498;18.544;2023-08-08T12:10:19;99578.80;;;18.62
71205;BMP180;58935;54.498;18.544;2023-08-08T12:12:46;99570.20;;;18.76
71205;BMP180;58935;54.498;18.544;2023-08-08T12:15:13;99565.60;;;18.84
71205;BMP180;58935;54.498;18.544;2023-08-08T12:17:39;99566.60;;;18.98
71205;BMP180;58935;54.498;18.544;2023-08-08T12:20:07;99577.60;;;19.10
71205;BMP180;58935;54.498;18.544;2023-08-08T12:22:33;99576.00;;;19.20
71205;BMP180;58935;54.498;18.544;2023-08-08T12:24:59;99567.20;;;19.30
71205;BMP180;58935;54.498;18.544;2023-08-08T12:27:25;99564.00;;;19.30
71205;BMP180;58935;54.498;18.544;2023-08-08T12:29:50;99569.00;;;19.40
71205;BMP180;58935;54.498;18.544;2023-08-08T12:32:19;99559.40;;;19.50
71205;BMP180;58935;54.498;18.544;2023-08-08T12:34:44;99549.00;;;19.60
71205;BMP180;58935;54.498;18.544;2023-08-08T12:37:10;99553.80;;;19.70
71205;BMP180;58935;54.498;18.544;2023-08-08T12:39:35;99564.60;;;19.74
71205;BMP180;58935;54.498;18.544;2023-08-08T12:42:01;99560.00;;;19.86
71205;BMP180;58935;54.498;18.544;2023-08-08T12:44:26;99564.20;;;19.90
71205;BMP180;58935;54.498;18.544;2023-08-08T12:46:51;99574.80;;;19.80
71205;BMP180;58935;54.498;18.544;2023-08-08T12:49:17;99580.00;;;19.68
71205;BMP180;58935;54.498;18.544;2023-08-08T12:51:42;99618.80;;;19.50
71205;BMP180;58935;54.498;18.544;2023-08-08T12:54:07;99653.80;;;19.26
71205;BMP180;58935;54.498;18.544;2023-08-08T12:56:33;99657.80;;;18.80
71205;BMP180;58935;54.498;18.544;2023-08-08T12:58:58;99648.20;;;18.28
71205;BMP180;58935;54.498;18.544;2023-08-08T13:01:23;99650.60;;;17.80
71205;BMP180;58935;54.498;18.544;2023-08-08T13:03:50;99634.00;;;17.44
71205;BMP180;58935;54.498;18.544;2023-08-08T13:06:15;99625.00;;;17.28
71205;BMP180;58935;54.498;18.544;2023-08-08T13:08:41;99620.20;;;17.20
71205;BMP180;58935;54.498;18.544;2023-08-08T13:11:07;99617.40;;;17.30
71205;BMP180;58935;54.498;18.544;2023-08-08T13:13:32;99611.80;;;17.40
71205;BMP180;58935;54.498;18.544;2023-08-08T13:15:57;99618.00;;;17.52
71205;BMP180;58935;54.498;18.544;2023-08-08T13:18:23;99629.60;;;17.70
71205;BMP180;58935;54.498;18.544;2023-08-08T13:20:48;99630.00;;;17.70
71205;BMP180;58935;54.498;18.544;2023-08-08T13:23:14;99625.60;;;17.80
71205;BMP180;58935;54.498;18.544;2023-08-08T13:25:39;99622.60;;;17.90
71205;BMP180;58935;54.498;18.544;2023-08-08T13:28:06;99626.40;;;17.94
71205;BMP180;58935;54.498;18.544;2023-08-08T13:30:32;99621.60;;;18.00
71205;BMP180;58935;54.498;18.544;2023-08-08T13:32:59;99630.80;;;18.00
71205;BMP180;58935;54.498;18.544;2023-08-08T13:35:25;99641.80;;;18.00
71205;BMP180;58935;54.498;18.544;2023-08-08T13:37:51;99654.60;;;17.90
71205;BMP180;58935;54.498;18.544;2023-08-08T13:40:18;99670.00;;;17.80
71205;BMP180;58935;54.498;18.544;2023-08-08T13:42:43;99674.20;;;17.66
71205;BMP180;58935;54.498;18.544;2023-08-08T13:45:14;99687.20;;;17.50
71205;BMP180;58935;54.498;18.544;2023-08-08T13:47:39;99684.00;;;17.40
71205;BMP180;58935;54.498;18.544;2023-08-08T13:50:05;99694.80;;;17.28
71205;BMP180;58935;54.498;18.544;2023-08-08T13:52:31;99690.40;;;17.10